createdAt,value
2018-01-02T00:02:18.667Z," 6.39"
2018-01-02T00:07:14.187Z," 6.56"
2018-01-02T00:12:10.007Z," 6.54"
2018-01-02T00:17:06.393Z," 6.57"
2018-01-02T00:22:02.117Z," 6.54"
2018-01-02T00:26:59.231Z," 6.46"
2018-01-02T00:31:54.843Z," 6.60"
2018-01-02T00:36:50.430Z," 6.54"
2018-01-02T00:41:45.816Z," 6.44"
2018-01-02T00:46:42.532Z," 6.62"
2018-01-02T00:51:37.909Z," 6.56"
2018-01-02T00:56:33.752Z," 6.57"
2018-01-02T01:01:29.429Z," 6.49"
2018-01-02T01:06:25.267Z," 6.51"
2018-01-02T01:11:22.027Z," 6.49"
2018-01-02T01:16:17.458Z," 6.56"
2018-01-02T01:21:14.146Z," 6.63"
2018-01-02T01:26:09.570Z," 6.51"
2018-01-02T01:31:05.123Z," 6.49"
2018-01-02T01:36:01.756Z," 6.45"
2018-01-02T01:40:57.416Z," 6.56"
2018-01-02T01:45:54.104Z," 6.52"
2018-01-02T01:50:50.554Z," 6.54"
2018-01-02T01:55:46.019Z," 6.57"
2018-01-02T02:00:41.989Z," 6.49"
2018-01-02T02:05:38.742Z," 6.57"
2018-01-02T02:10:35.115Z," 6.52"
2018-01-02T02:15:30.506Z," 6.44"
2018-01-02T02:20:26.872Z," 6.42"
2018-01-02T02:25:22.641Z," 6.48"
2018-01-02T02:30:18.394Z," 6.41"
2018-01-02T02:35:13.789Z," 6.35"
2018-01-02T02:40:10.312Z," 6.45"
2018-01-02T02:45:06.185Z," 6.35"
2018-01-02T02:50:02.236Z," 6.42"
2018-01-02T02:54:58.023Z," 6.44"
2018-01-02T02:59:54.929Z," 6.24"
2018-01-02T03:04:49.822Z," 6.24"
2018-01-02T03:09:45.496Z," 6.27"
2018-01-02T03:14:41.882Z," 6.27"
2018-01-02T03:19:38.589Z," 6.14"
2018-01-02T03:24:34.249Z," 6.08"
2018-01-02T03:29:30.044Z," 6.02"
2018-01-02T03:34:25.673Z," 6.05"
2018-01-02T03:39:21.074Z," 5.97"
2018-01-02T03:44:17.108Z," 5.94"
2018-01-02T03:49:12.919Z," 6.11"
2018-01-02T03:54:10.571Z," 6.12"
2018-01-02T03:59:06.158Z," 6.27"
2018-01-02T04:04:01.471Z," 6.14"
2018-01-02T04:08:57.357Z," 6.16"
2018-01-02T04:13:52.744Z," 5.98"
2018-01-02T04:18:48.291Z," 6.01"
2018-01-02T04:23:44.052Z," 6.02"
2018-01-02T04:28:41.205Z," 6.01"
2018-01-02T04:33:36.618Z," 6.04"
2018-01-02T04:38:32.489Z," 6.02"
2018-01-02T04:43:28.045Z," 6.16"
2018-01-02T04:48:23.906Z," 6.11"
2018-01-02T04:53:19.578Z," 6.26"
2018-01-02T04:58:15.186Z," 6.26"
2018-01-02T05:03:11.236Z," 6.28"
2018-01-02T05:08:06.970Z," 6.35"
2018-01-02T05:13:02.770Z," 6.33"
2018-01-02T05:17:58.632Z," 6.41"
2018-01-02T05:22:56.597Z," 6.42"
2018-01-02T05:27:51.956Z," 6.39"
2018-01-02T05:32:47.806Z," 6.48"
2018-01-02T05:37:45.013Z," 6.46"
2018-01-02T05:42:41.126Z," 6.45"
2018-01-02T05:47:36.684Z," 6.41"
2018-01-02T05:52:32.534Z," 6.36"
2018-01-02T05:57:28.258Z," 6.38"
2018-01-02T06:02:24.983Z," 6.35"
2018-01-02T06:07:20.430Z," 6.38"
2018-01-02T06:12:16.320Z," 6.41"
2018-01-02T06:17:12.838Z," 6.24"
2018-01-02T06:22:09.333Z," 6.20"
2018-01-02T06:27:04.963Z," 6.22"
2018-01-02T06:32:00.889Z," 6.38"
2018-01-02T06:36:57.652Z," 6.28"
2018-01-02T06:41:53.503Z," 6.35"
2018-01-02T06:46:49.225Z," 6.22"
2018-01-02T06:51:45.015Z," 6.17"
2018-01-02T06:56:41.807Z," 6.09"
2018-01-02T07:01:37.302Z," 6.26"
2018-01-02T07:06:33.111Z," 6.45"
2018-01-02T07:11:28.904Z," 6.59"
2018-01-02T07:16:24.541Z," 6.54"
2018-01-02T07:21:20.359Z," 6.60"
2018-01-02T07:26:16.021Z," 6.56"
2018-01-02T07:31:12.047Z," 6.60"
2018-01-02T07:36:07.978Z," 6.62"
2018-01-02T07:41:03.901Z," 6.62"
2018-01-02T07:46:00.826Z," 6.78"
2018-01-02T07:50:56.657Z," 6.81"
2018-01-02T07:55:52.440Z," 6.72"
2018-01-02T08:00:48.238Z," 6.64"
2018-01-02T08:05:43.874Z," 6.69"
2018-01-02T08:10:39.377Z," 6.74"
2018-01-02T08:15:35.176Z," 6.75"
2018-01-02T08:20:31.046Z," 6.89"
2018-01-02T08:25:27.740Z," 6.88"
2018-01-02T08:30:24.072Z," 6.87"
2018-01-02T08:35:20.724Z," 7.02"
2018-01-02T08:40:16.034Z," 6.92"
2018-01-02T08:45:11.829Z," 6.99"
2018-01-02T08:50:08.833Z," 7.06"
2018-01-02T08:55:04.327Z," 6.95"
2018-01-02T09:00:01.052Z," 7.03"
2018-01-02T09:04:56.559Z," 6.92"
2018-01-02T09:09:52.133Z," 7.17"
2018-01-02T09:14:47.988Z," 7.20"
2018-01-02T09:19:45.436Z," 7.24"
2018-01-02T09:24:40.996Z," 7.13"
2018-01-02T09:29:36.747Z," 7.18"
2018-01-02T09:34:32.165Z," 7.15"
2018-01-02T09:39:28.857Z," 7.17"
2018-01-02T09:44:24.642Z," 7.25"
2018-01-02T09:49:20.397Z," 7.24"
2018-01-02T09:54:15.990Z," 7.40"
2018-01-02T09:59:12.015Z," 7.57"
2018-01-02T10:04:08.040Z," 7.50"
2018-01-02T10:09:03.806Z," 7.36"
2018-01-02T10:14:00.305Z," 7.13"
2018-01-02T10:18:56.763Z," 7.02"
2018-01-02T10:23:51.824Z," 7.11"
2018-01-02T10:28:48.019Z," 7.11"
2018-01-02T10:33:44.844Z," 7.17"
2018-01-02T10:38:40.510Z," 7.23"
2018-01-02T10:43:36.713Z," 7.33"
2018-01-02T10:48:32.631Z," 7.32"
2018-01-02T10:53:28.440Z," 7.42"
2018-01-02T10:58:24.248Z," 7.51"
2018-01-02T11:03:21.099Z," 7.43"
2018-01-02T11:08:16.791Z," 7.53"
2018-01-02T11:13:12.693Z," 7.60"
2018-01-02T11:18:08.281Z," 7.58"
2018-01-02T11:23:06.357Z," 7.53"
2018-01-02T11:28:02.337Z," 7.47"
2018-01-02T11:32:58.359Z," 7.54"
2018-01-02T11:37:55.248Z," 7.57"
2018-01-02T11:42:50.783Z," 7.56"
2018-01-02T11:47:46.630Z," 7.56"
2018-01-02T11:52:42.432Z," 7.54"
2018-01-02T11:57:38.174Z," 7.48"
2018-01-02T12:02:33.760Z," 7.50"
2018-01-02T12:07:29.887Z," 7.54"
2018-01-02T12:12:26.987Z," 7.60"
2018-01-02T12:17:22.041Z," 7.42"
2018-01-02T12:22:18.688Z," 7.56"
2018-01-02T12:27:14.443Z," 7.75"
2018-01-02T12:32:10.092Z," 7.54"
2018-01-02T12:37:05.353Z," 7.54"
2018-01-02T12:42:01.027Z," 7.31"
2018-01-02T12:46:57.834Z," 7.10"
2018-01-02T12:51:53.256Z," 7.10"
2018-01-02T12:56:48.989Z," 7.10"
2018-01-02T13:01:45.441Z," 7.11"
2018-01-02T13:06:41.334Z," 7.15"
2018-01-02T13:11:38.264Z," 7.15"
2018-01-02T13:16:35.815Z," 7.21"
2018-01-02T13:21:32.564Z," 7.18"
2018-01-02T13:26:27.992Z," 7.11"
2018-01-02T13:31:24.947Z," 7.32"
2018-01-02T13:36:20.521Z," 7.31"
2018-01-02T13:41:16.347Z," 7.35"
2018-01-02T13:46:12.625Z," 7.39"
2018-01-02T13:51:08.098Z," 7.29"
2018-01-02T13:56:03.945Z," 7.38"
2018-01-02T14:01:00.236Z," 7.35"
2018-01-02T14:10:57.729Z," 7.33"
2018-01-02T14:15:54.450Z," 7.36"
2018-01-02T14:20:49.980Z," 7.31"
2018-01-02T14:25:45.632Z," 7.32"
2018-01-02T14:30:41.411Z," 7.36"
2018-01-02T14:35:37.154Z," 7.29"
2018-01-02T14:40:33.264Z," 7.28"
2018-01-02T14:45:29.480Z," 7.39"
2018-01-02T14:50:25.229Z," 7.28"
2018-01-02T14:55:22.210Z," 7.25"
2018-01-02T15:00:18.601Z," 7.07"
2018-01-02T15:05:14.029Z," 7.00"
2018-01-02T15:10:09.965Z," 6.89"
2018-01-02T15:15:06.651Z," 6.95"
2018-01-02T15:20:04.198Z," 6.87"
2018-01-02T15:25:01.306Z," 6.75"
2018-01-02T15:29:57.490Z," 6.70"
2018-01-02T15:34:52.639Z," 6.62"
2018-01-02T15:39:48.413Z," 6.64"
2018-01-02T15:44:43.711Z," 6.77"
2018-01-02T15:49:39.535Z," 6.78"
2018-01-02T15:54:35.934Z," 6.69"
2018-01-02T15:59:31.730Z," 6.70"
2018-01-02T16:04:27.615Z," 6.72"
2018-01-02T16:09:23.459Z," 6.79"
2018-01-02T16:14:19.138Z," 6.85"
2018-01-02T16:19:14.972Z," 6.77"
2018-01-02T16:24:11.726Z," 6.87"
2018-01-02T16:29:08.654Z," 6.82"
2018-01-02T16:34:05.454Z," 6.84"
2018-01-02T16:39:02.162Z," 6.85"
2018-01-02T16:43:58.635Z," 6.84"
2018-01-02T16:48:54.872Z," 6.77"
2018-01-02T16:53:50.369Z," 6.74"
2018-01-02T16:58:46.121Z," 6.78"
2018-01-02T17:03:42.553Z," 6.81"
2018-01-02T17:08:38.385Z," 6.77"
2018-01-02T17:13:34.076Z," 6.81"
2018-01-02T17:18:30.904Z," 6.81"
2018-01-02T17:23:26.197Z," 6.72"
2018-01-02T17:28:22.003Z," 6.82"
2018-01-02T17:33:17.817Z," 6.82"
2018-01-02T17:38:14.441Z," 6.85"
2018-01-02T17:43:11.312Z," 6.70"
2018-01-02T17:48:08.088Z," 6.78"
2018-01-02T17:53:03.589Z," 6.72"
2018-01-02T17:57:58.888Z," 6.69"
2018-01-02T18:02:55.278Z," 6.74"
2018-01-02T18:07:51.181Z," 6.77"
2018-01-02T18:12:48.135Z," 6.70"
2018-01-02T18:17:44.022Z," 6.72"
2018-01-02T18:22:40.824Z," 6.77"
2018-01-02T18:27:36.464Z," 6.70"
2018-01-02T18:32:32.285Z," 6.64"
2018-01-02T18:37:28.265Z," 6.74"
2018-01-02T18:42:24.135Z," 6.69"
2018-01-02T18:47:19.821Z," 6.77"
2018-01-02T18:52:15.323Z," 6.63"
2018-01-02T18:57:12.129Z," 6.77"
2018-01-02T19:02:07.597Z," 6.74"
2018-01-02T19:07:03.369Z," 6.85"
2018-01-02T19:11:59.145Z," 6.79"
2018-01-02T19:16:54.866Z," 6.84"
2018-01-02T19:21:50.632Z," 6.74"
2018-01-02T19:26:46.401Z," 6.88"
2018-01-02T19:31:42.254Z," 6.82"
2018-01-02T19:36:38.857Z," 6.85"
2018-01-02T19:41:34.631Z," 7.02"
2018-01-02T19:46:31.154Z," 7.06"
2018-01-02T19:51:27.001Z," 7.00"
2018-01-02T19:56:23.212Z," 6.97"
2018-01-02T20:01:18.850Z," 6.84"
2018-01-02T20:06:16.629Z," 6.87"
2018-01-02T20:11:12.194Z," 6.75"
2018-01-02T20:16:08.020Z," 6.81"
2018-01-02T20:21:05.672Z," 6.74"
2018-01-02T20:26:03.380Z," 6.81"
2018-01-02T20:30:59.763Z," 6.70"
2018-01-02T20:35:57.195Z," 6.63"
2018-01-02T20:40:53.769Z," 6.44"
2018-01-02T20:45:50.702Z," 6.26"
2018-01-02T20:50:47.234Z," 6.27"
2018-01-02T20:55:45.424Z," 6.27"
2018-01-02T21:00:41.658Z," 6.27"
2018-01-02T21:05:39.052Z," 6.12"
2018-01-02T21:10:35.396Z," 5.99"
2018-01-02T21:15:30.853Z," 6.08"
2018-01-02T21:20:28.251Z," 6.02"
2018-01-02T21:25:23.607Z," 6.07"
2018-01-02T21:30:19.668Z," 5.90"
2018-01-02T21:35:15.377Z," 6.12"
2018-01-02T21:40:11.413Z," 6.11"
2018-01-02T21:45:07.313Z," 6.07"
2018-01-02T21:50:03.398Z," 6.07"
2018-01-02T21:54:59.370Z," 6.20"
2018-01-02T21:59:56.315Z," 6.30"
2018-01-02T22:04:52.053Z," 6.45"
2018-01-02T22:09:47.617Z," 6.45"
2018-01-02T22:14:43.817Z," 6.54"
2018-01-02T22:19:39.493Z," 6.69"
2018-01-02T22:24:35.197Z," 6.84"
2018-01-02T22:29:30.955Z," 6.84"
2018-01-02T22:34:26.971Z," 7.06"
2018-01-02T22:39:22.923Z," 7.06"
2018-01-02T22:44:19.811Z," 7.18"
2018-01-02T22:49:15.533Z," 7.36"
2018-01-02T22:54:12.373Z," 7.33"
2018-01-02T22:59:08.936Z," 7.31"
2018-01-02T23:04:04.326Z," 7.38"
2018-01-02T23:09:00.163Z," 7.51"
2018-01-02T23:13:56.408Z," 7.40"
2018-01-02T23:18:52.014Z," 7.47"
2018-01-02T23:23:47.514Z," 7.40"
2018-01-02T23:28:43.210Z," 7.48"
2018-01-02T23:33:39.333Z," 7.36"
2018-01-02T23:38:34.983Z," 7.51"
2018-01-02T23:43:30.794Z," 7.48"
2018-01-02T23:48:26.554Z," 7.50"
2018-01-02T23:53:23.286Z," 7.38"
2018-01-02T23:58:19.042Z," 7.38"
